createdAt,value
2019-04-06T00:00:06.335Z,54.76
2019-04-06T00:02:38.267Z,54.46
2019-04-06T00:05:07.921Z,54.81
2019-04-06T00:07:37.400Z,55.20
2019-04-06T00:10:07.742Z,54.93
2019-04-06T00:12:37.075Z,53.88
2019-04-06T00:15:06.613Z,53.83
2019-04-06T00:17:35.984Z,54.62
2019-04-06T00:20:06.057Z,54.44
2019-04-06T00:22:35.528Z,53.31
2019-04-06T00:25:05.437Z,52.54
2019-04-06T00:27:34.807Z,53.29
2019-04-06T00:30:06.389Z,54.19
2019-04-06T00:32:46.810Z,53.76
2019-04-06T00:35:16.179Z,54.48
2019-04-06T00:37:45.543Z,54.99
2019-04-06T00:40:14.973Z,54.62
2019-04-06T00:42:44.352Z,53.81
2019-04-06T00:45:13.786Z,53.39
2019-04-06T00:47:43.142Z,53.10
2019-04-06T00:50:12.775Z,52.62
2019-04-06T00:52:42.167Z,51.93
2019-04-06T00:55:11.611Z,51.75
2019-04-06T00:57:40.958Z,51.70
2019-04-06T01:00:10.320Z,51.64
2019-04-06T01:02:39.747Z,51.85
2019-04-06T01:05:09.410Z,51.88
2019-04-06T01:07:38.797Z,51.75
2019-04-06T01:10:08.520Z,51.13
2019-04-06T01:12:37.861Z,50.90
2019-04-06T01:15:07.798Z,50.81
2019-04-06T01:17:37.150Z,50.68
2019-04-06T01:20:07.490Z,50.73
2019-04-06T01:22:36.857Z,50.72
2019-04-06T01:25:06.689Z,50.62
2019-04-06T01:27:36.115Z,50.56
2019-04-06T01:30:06.415Z,50.83
2019-04-06T01:32:35.839Z,51.72
2019-04-06T01:35:05.331Z,51.55
2019-04-06T01:37:34.695Z,52.07
2019-04-06T01:40:04.811Z,52.04
2019-04-06T01:42:34.170Z,52.40
2019-04-06T01:45:04.170Z,52.99
2019-04-06T01:47:33.566Z,52.38
2019-04-06T01:50:02.938Z,51.92
2019-04-06T01:52:32.308Z,51.46
2019-04-06T01:55:01.730Z,51.74
2019-04-06T01:57:31.092Z,50.72
2019-04-06T02:00:00.510Z,50.85
2019-04-06T02:02:32.377Z,50.93
2019-04-06T02:05:01.736Z,50.97
2019-04-06T02:07:31.114Z,51.12
2019-04-06T02:10:00.485Z,51.71
2019-04-06T02:12:29.856Z,52.73
2019-04-06T02:14:59.242Z,53.01
2019-04-06T02:17:28.672Z,53.98
2019-04-06T02:19:58.031Z,53.81
2019-04-06T02:22:27.496Z,53.93
2019-04-06T02:24:56.942Z,53.47
2019-04-06T02:27:26.383Z,52.65
2019-04-06T02:30:17.786Z,52.29
2019-04-06T02:33:02.261Z,52.36
2019-04-06T02:35:38.004Z,53.27
2019-04-06T02:38:17.155Z,55.52
2019-04-06T02:41:01.501Z,56.24
2019-04-06T02:43:32.722Z,55.70
2019-04-06T02:46:02.021Z,54.81
2019-04-06T02:48:31.569Z,54.24
2019-04-06T02:51:01.065Z,54.09
2019-04-06T02:53:30.416Z,54.03
2019-04-06T02:55:59.781Z,53.86
2019-04-06T02:58:29.224Z,53.74
2019-04-06T03:00:58.672Z,53.94
2019-04-06T03:03:28.042Z,54.09
2019-04-06T03:05:57.484Z,54.07
2019-04-06T03:08:27.033Z,54.18
2019-04-06T03:10:56.742Z,54.08
2019-04-06T03:13:26.193Z,54.05
2019-04-06T03:15:55.544Z,54.26
2019-04-06T03:18:24.924Z,54.25
2019-04-06T03:20:54.288Z,53.98
2019-04-06T03:23:24.913Z,53.85
2019-04-06T03:25:54.780Z,53.84
2019-04-06T03:28:24.232Z,54.20
2019-04-06T03:30:53.609Z,54.21
2019-04-06T03:33:23.268Z,54.18
2019-04-06T03:35:53.293Z,54.17
2019-04-06T03:38:22.732Z,54.31
2019-04-06T03:40:52.096Z,54.43
2019-04-06T03:43:21.471Z,54.27
2019-04-06T03:45:50.818Z,54.17
2019-04-06T03:48:20.253Z,54.16
2019-04-06T03:50:49.607Z,54.25
2019-04-06T03:53:19.157Z,54.25
2019-04-06T03:55:48.605Z,54.02
2019-04-06T03:58:17.978Z,53.92
2019-04-06T04:00:47.411Z,53.92
2019-04-06T04:03:16.784Z,53.96
2019-04-06T04:05:46.135Z,53.93
2019-04-06T04:08:15.574Z,54.02
2019-04-06T04:10:47.343Z,53.92
2019-04-06T04:13:15.999Z,54.08
2019-04-06T04:15:45.474Z,53.96
2019-04-06T04:18:14.952Z,54.20
2019-04-06T04:20:44.316Z,54.56
2019-04-06T04:23:13.689Z,54.33
2019-04-06T04:25:43.033Z,54.18
2019-04-06T04:28:12.428Z,53.73
2019-04-06T04:30:41.827Z,54.11
2019-04-06T04:33:11.479Z,54.31
2019-04-06T04:35:40.988Z,54.43
2019-04-06T04:38:10.609Z,54.51
2019-04-06T04:40:40.113Z,54.33
2019-04-06T04:43:09.627Z,54.17
2019-04-06T04:45:39.264Z,54.21
2019-04-06T04:48:08.893Z,54.11
2019-04-06T04:50:38.388Z,54.41
2019-04-06T04:53:07.922Z,54.50
2019-04-06T04:55:37.449Z,54.64
2019-04-06T04:58:06.987Z,54.71
2019-04-06T05:00:36.605Z,54.67
2019-04-06T05:03:06.212Z,54.56
2019-04-06T05:05:36.492Z,54.53
2019-04-06T05:08:06.019Z,53.57
2019-04-06T05:10:35.885Z,54.12
2019-04-06T05:13:05.671Z,54.89
2019-04-06T05:16:06.993Z,54.88
2019-04-06T05:18:36.538Z,55.46
2019-04-06T05:21:06.238Z,57.22
2019-04-06T05:23:35.922Z,57.03
2019-04-06T05:26:06.575Z,57.37
2019-04-06T05:28:36.269Z,55.19
2019-04-06T05:31:05.935Z,55.85
2019-04-06T05:33:35.681Z,56.03
2019-04-06T05:36:05.919Z,55.73
2019-04-06T05:38:35.420Z,56.20
2019-04-06T05:41:06.418Z,56.50
2019-04-06T05:43:35.934Z,56.08
2019-04-06T05:46:05.607Z,56.90
2019-04-06T05:48:36.959Z,57.26
2019-04-06T05:51:06.429Z,57.71
2019-04-06T05:53:35.952Z,57.63
2019-04-06T05:56:05.715Z,57.64
2019-04-06T05:58:35.435Z,57.66
2019-04-06T06:01:05.040Z,57.53
2019-04-06T06:03:34.636Z,57.46
2019-04-06T06:06:04.234Z,57.44
2019-04-06T06:08:33.749Z,57.50
2019-04-06T06:11:03.562Z,57.45
2019-04-06T06:13:33.133Z,57.07
2019-04-06T06:16:02.764Z,57.01
2019-04-06T06:18:32.357Z,57.20
2019-04-06T06:21:01.880Z,56.67
2019-04-06T06:23:31.386Z,55.03
2019-04-06T06:26:01.210Z,55.23
2019-04-06T06:28:30.893Z,56.50
2019-04-06T06:31:00.412Z,57.15
2019-04-06T06:33:29.996Z,56.91
2019-04-06T06:35:59.530Z,57.28
2019-04-06T06:38:29.112Z,56.34
2019-04-06T06:40:58.642Z,56.10
2019-04-06T06:43:28.157Z,56.23
2019-04-06T06:45:57.670Z,56.42
2019-04-06T06:48:27.181Z,56.03
2019-04-06T06:50:56.703Z,55.68
2019-04-06T06:53:26.311Z,56.40
2019-04-06T06:55:55.914Z,56.52
2019-04-06T06:58:26.250Z,56.69
2019-04-06T07:00:55.924Z,57.15
2019-04-06T07:03:25.510Z,57.43
2019-04-06T07:05:55.271Z,57.76
2019-04-06T07:08:24.851Z,57.94
2019-04-06T07:10:54.449Z,57.78
2019-04-06T07:13:23.960Z,57.94
2019-04-06T07:15:53.488Z,57.93
2019-04-06T07:18:23.174Z,58.07
2019-04-06T07:20:53.188Z,58.17
2019-04-06T07:23:22.701Z,58.19
2019-04-06T07:25:58.304Z,56.32
2019-04-06T07:28:23.507Z,57.77
2019-04-06T07:30:53.051Z,58.59
2019-04-06T07:33:22.560Z,58.63
2019-04-06T07:35:52.162Z,59.02
2019-04-06T07:38:21.782Z,59.16
2019-04-06T07:40:51.366Z,58.60
2019-04-06T07:43:20.931Z,58.65
2019-04-06T07:45:50.703Z,58.95
2019-04-06T07:48:20.213Z,57.22
2019-04-06T07:50:49.754Z,59.10
2019-04-06T07:53:19.543Z,59.27
2019-04-06T07:55:49.154Z,59.53
2019-04-06T07:58:18.674Z,59.67
2019-04-06T08:00:48.270Z,59.40
2019-04-06T08:03:17.775Z,59.25
2019-04-06T08:05:47.394Z,59.01
2019-04-06T08:08:16.941Z,54.53
2019-04-06T08:10:46.488Z,56.08
2019-04-06T08:13:16.257Z,58.48
2019-04-06T08:15:45.918Z,52.62
2019-04-06T08:18:15.768Z,53.71
2019-04-06T08:20:45.475Z,57.07
2019-04-06T08:23:15.187Z,58.08
2019-04-06T08:25:44.692Z,56.14
2019-04-06T08:28:32.039Z,55.42
2019-04-06T08:31:01.579Z,57.83
2019-04-06T08:33:31.111Z,56.32
2019-04-06T08:36:00.636Z,59.08
2019-04-06T08:38:30.399Z,59.59
2019-04-06T08:40:59.980Z,51.12
2019-04-06T08:43:29.473Z,51.90
2019-04-06T08:45:59.007Z,49.67
2019-04-06T08:48:28.538Z,51.35
2019-04-06T08:50:58.046Z,49.43
2019-04-06T08:53:27.552Z,56.50
2019-04-06T08:55:57.192Z,52.79
2019-04-06T08:58:27.026Z,49.85
2019-04-06T09:00:56.801Z,52.37
2019-04-06T09:03:29.572Z,51.59
2019-04-06T09:05:59.155Z,51.22
2019-04-06T09:08:28.857Z,48.04
2019-04-06T09:10:58.439Z,52.34
2019-04-06T09:13:28.055Z,50.18
2019-04-06T09:15:57.642Z,49.08
2019-04-06T09:18:30.816Z,51.32
2019-04-06T09:21:00.421Z,48.52
2019-04-06T09:23:30.284Z,47.32
2019-04-06T09:25:59.835Z,51.48
2019-04-06T09:28:29.376Z,47.00
2019-04-06T09:30:58.898Z,47.03
2019-04-06T09:33:28.761Z,46.02
2019-04-06T09:35:58.340Z,46.48
2019-04-06T09:38:27.810Z,51.44
2019-04-06T09:40:57.453Z,47.73
2019-04-06T09:43:27.022Z,49.24
2019-04-06T09:46:15.698Z,48.34
2019-04-06T09:48:59.965Z,52.17
2019-04-06T09:51:51.447Z,53.75
2019-04-06T09:54:55.365Z,53.52
2019-04-06T09:57:48.088Z,48.36
2019-04-06T10:00:24.512Z,45.80
2019-04-06T10:03:06.842Z,47.00
2019-04-06T10:05:54.167Z,47.48
2019-04-06T10:08:42.718Z,48.69
2019-04-06T10:11:24.820Z,46.52
2019-04-06T10:14:25.707Z,48.03
2019-04-06T10:17:13.122Z,46.64
2019-04-06T10:19:58.731Z,47.85
2019-04-06T10:22:58.331Z,46.29
2019-04-06T10:25:59.094Z,45.71
2019-04-06T10:28:49.844Z,45.89
2019-04-06T10:31:36.084Z,48.45
2019-04-06T10:34:34.669Z,45.81
2019-04-06T10:37:21.940Z,46.19
2019-04-06T10:40:09.538Z,49.49
2019-04-06T10:43:04.196Z,46.52
2019-04-06T10:45:51.471Z,45.54
2019-04-06T10:48:25.934Z,44.52
2019-04-06T10:51:26.463Z,45.19
2019-04-06T10:54:24.315Z,44.31
2019-04-06T10:57:25.351Z,45.18
2019-04-06T11:00:19.987Z,47.50
2019-04-06T11:02:55.897Z,45.14
2019-04-06T11:05:34.879Z,48.85
2019-04-06T11:08:22.473Z,47.88
2019-04-06T11:11:12.675Z,48.68
2019-04-06T11:13:51.734Z,46.04
2019-04-06T11:16:27.893Z,46.36
2019-04-06T11:19:16.451Z,49.09
2019-04-06T11:22:01.334Z,48.90
2019-04-06T11:24:52.872Z,47.58
2019-04-06T11:27:40.022Z,45.81
2019-04-06T11:30:45.571Z,47.67
2019-04-06T11:33:40.251Z,46.87
2019-04-06T11:36:17.316Z,46.04
2019-04-06T11:39:24.292Z,45.37
2019-04-06T11:42:31.542Z,45.32
2019-04-06T11:45:19.851Z,46.13
2019-04-06T11:48:11.624Z,46.75
2019-04-06T11:50:59.099Z,44.17
2019-04-06T11:53:46.690Z,43.99
2019-04-06T11:56:33.862Z,45.16
2019-04-06T11:59:22.900Z,45.92
2019-04-06T12:02:20.728Z,45.58
2019-04-06T12:05:24.476Z,46.73
2019-04-06T12:08:13.029Z,46.36
2019-04-06T12:11:00.416Z,46.99
2019-04-06T12:13:48.933Z,44.69
2019-04-06T12:16:32.628Z,44.43
2019-04-06T12:19:20.967Z,43.81
2019-04-06T12:22:03.191Z,44.68
2019-04-06T12:24:56.344Z,46.11
2019-04-06T12:27:43.634Z,46.54
2019-04-06T12:30:39.316Z,45.36
2019-04-06T12:33:28.498Z,44.24
2019-04-06T12:36:08.188Z,45.11
2019-04-06T12:38:55.965Z,41.96
2019-04-06T12:41:46.194Z,41.71
2019-04-06T12:44:33.451Z,43.31
2019-04-06T12:47:13.119Z,42.11
2019-04-06T12:50:17.195Z,43.82
2019-04-06T12:53:07.166Z,44.81
2019-04-06T12:55:42.638Z,41.29
2019-04-06T12:58:49.664Z,44.21
2019-04-06T13:01:41.026Z,42.21
2019-04-06T13:04:29.856Z,41.49
2019-04-06T13:07:30.719Z,42.22
2019-04-06T13:10:17.881Z,41.45
2019-04-06T13:13:24.947Z,41.87
2019-04-06T13:15:59.758Z,41.33
2019-04-06T13:18:57.014Z,42.99
2019-04-06T13:21:44.404Z,42.29
2019-04-06T13:24:22.237Z,44.10
2019-04-06T13:27:01.745Z,41.56
2019-04-06T13:29:49.085Z,42.14
2019-04-06T13:32:52.810Z,44.88
2019-04-06T13:35:31.421Z,41.81
2019-04-06T13:38:38.728Z,41.67
2019-04-06T13:41:19.984Z,42.90
2019-04-06T13:44:14.664Z,41.88
2019-04-06T13:46:56.976Z,42.50
2019-04-06T13:49:43.946Z,42.64
2019-04-06T13:52:38.789Z,42.03
2019-04-06T13:55:30.403Z,41.27
2019-04-06T13:58:34.375Z,41.59
2019-04-06T14:01:17.856Z,43.46
2019-04-06T14:04:03.590Z,44.76
2019-04-06T14:06:43.486Z,43.66
2019-04-06T14:09:31.619Z,40.86
2019-04-06T14:12:10.098Z,41.47
2019-04-06T14:14:48.941Z,41.24
2019-04-06T14:17:37.446Z,41.15
2019-04-06T14:20:26.330Z,40.75
2019-04-06T14:23:07.339Z,40.54
2019-04-06T14:26:04.970Z,41.53
2019-04-06T14:28:53.479Z,40.28
2019-04-06T14:31:30.938Z,43.46
2019-04-06T14:34:18.540Z,44.62
2019-04-06T14:37:25.262Z,40.93
2019-04-06T14:40:12.419Z,41.85
2019-04-06T14:43:00.114Z,41.93
2019-04-06T14:45:51.669Z,42.81
2019-04-06T14:48:31.147Z,43.85
2019-04-06T14:51:19.648Z,41.02
2019-04-06T14:53:54.574Z,40.06
2019-04-06T14:56:33.551Z,40.64
2019-04-06T14:59:10.638Z,40.99
2019-04-06T15:01:58.257Z,41.57
2019-04-06T15:04:51.563Z,40.15
2019-04-06T15:07:30.186Z,43.66
2019-04-06T15:10:13.002Z,41.13
2019-04-06T15:12:57.726Z,39.90
2019-04-06T15:15:46.151Z,41.34
2019-04-06T15:18:37.770Z,41.03
2019-04-06T15:21:35.559Z,40.99
2019-04-06T15:24:20.238Z,39.88
2019-04-06T15:27:08.398Z,40.58
2019-04-06T15:30:03.285Z,42.11
2019-04-06T15:32:44.026Z,40.29
2019-04-06T15:35:19.986Z,42.82
2019-04-06T15:38:06.406Z,41.79
2019-04-06T15:41:07.527Z,42.11
2019-04-06T15:43:56.211Z,41.00
2019-04-06T15:46:40.819Z,39.51
2019-04-06T15:49:31.472Z,40.54
2019-04-06T15:52:19.977Z,41.34
2019-04-06T15:55:00.663Z,41.63
2019-04-06T15:57:48.157Z,39.19
2019-04-06T16:00:37.242Z,40.66
2019-04-06T16:03:21.414Z,40.62
2019-04-06T16:05:58.300Z,39.44
2019-04-06T16:08:40.976Z,41.44
2019-04-06T16:11:35.624Z,42.18
2019-04-06T16:14:12.849Z,41.50
2019-04-06T16:16:56.937Z,40.42
2019-04-06T16:19:33.621Z,40.61
2019-04-06T16:22:25.444Z,40.92
2019-04-06T16:25:00.142Z,39.74
2019-04-06T16:27:40.078Z,38.67
2019-04-06T16:30:47.264Z,40.15
2019-04-06T16:33:34.557Z,39.00
2019-04-06T16:36:26.040Z,38.98
2019-04-06T16:39:13.338Z,39.21
2019-04-06T16:42:08.134Z,38.77
2019-04-06T16:44:42.158Z,39.40
2019-04-06T16:47:36.889Z,39.38
2019-04-06T16:50:23.725Z,39.67
2019-04-06T16:53:04.383Z,39.17
2019-04-06T16:55:46.427Z,38.57
2019-04-06T16:58:50.138Z,38.93
2019-04-06T17:01:32.065Z,38.97
2019-04-06T17:04:12.820Z,38.74
2019-04-06T17:06:52.721Z,38.79
2019-04-06T17:09:41.214Z,38.68
2019-04-06T17:12:28.234Z,39.05
2019-04-06T17:15:18.862Z,38.43
2019-04-06T17:18:16.385Z,38.04
2019-04-06T17:21:04.774Z,37.58
2019-04-06T17:23:51.841Z,37.63
2019-04-06T17:26:42.732Z,37.30
2019-04-06T17:29:43.236Z,37.30
2019-04-06T17:32:38.107Z,37.58
2019-04-06T17:35:45.117Z,36.87
2019-04-06T17:38:42.898Z,37.27
2019-04-06T17:41:34.427Z,37.26
2019-04-06T17:44:31.205Z,37.75
2019-04-06T17:47:19.674Z,36.80
2019-04-06T17:50:15.174Z,36.85
2019-04-06T17:53:15.759Z,36.85
2019-04-06T17:56:00.046Z,37.68
2019-04-06T17:58:43.704Z,38.15
2019-04-06T18:01:35.121Z,37.83
2019-04-06T18:04:31.032Z,36.98
2019-04-06T18:07:09.941Z,37.53
2019-04-06T18:09:53.724Z,37.13
2019-04-06T18:12:33.547Z,37.70
2019-04-06T18:15:03.509Z,37.69
2019-04-06T18:17:33.055Z,38.73
2019-04-06T18:20:02.480Z,38.81
2019-04-06T18:22:32.037Z,38.12
2019-04-06T18:25:01.383Z,37.75
2019-04-06T18:27:30.766Z,37.04
2019-04-06T18:30:00.118Z,38.01
2019-04-06T18:32:57.450Z,37.05
2019-04-06T18:35:17.177Z,36.99
2019-04-06T18:37:52.900Z,37.02
2019-04-06T18:40:27.081Z,37.11
2019-04-06T18:42:56.538Z,36.96
2019-04-06T18:45:27.840Z,38.48
2019-04-06T18:47:57.306Z,37.03
2019-04-06T18:50:34.169Z,37.13
2019-04-06T18:52:57.822Z,37.10
2019-04-06T18:55:27.171Z,37.14
2019-04-06T18:58:07.898Z,37.09
2019-04-06T19:00:27.736Z,36.85
2019-04-06T19:03:00.969Z,36.89
2019-04-06T19:05:28.600Z,37.01
2019-04-06T19:07:58.476Z,37.08
2019-04-06T19:10:28.210Z,37.24
2019-04-06T19:12:57.701Z,37.43
2019-04-06T19:15:28.492Z,37.55
2019-04-06T19:17:57.918Z,37.83
2019-04-06T19:20:27.316Z,38.00
2019-04-06T19:22:57.132Z,38.56
2019-04-06T19:25:26.605Z,38.57
2019-04-06T19:27:56.390Z,38.39
2019-04-06T19:30:26.200Z,38.44
2019-04-06T19:32:55.566Z,38.71
2019-04-06T19:35:25.003Z,38.84
2019-04-06T19:37:54.359Z,38.89
2019-04-06T19:40:23.726Z,38.91
2019-04-06T19:42:53.700Z,39.33
2019-04-06T19:45:23.777Z,39.43
2019-04-06T19:47:53.129Z,39.28
2019-04-06T19:50:22.571Z,39.92
2019-04-06T19:52:51.952Z,39.73
2019-04-06T19:55:21.376Z,39.65
2019-04-06T19:57:50.748Z,39.69
2019-04-06T20:00:20.338Z,39.97
2019-04-06T20:02:49.702Z,41.23
2019-04-06T20:05:19.608Z,40.12
2019-04-06T20:07:49.076Z,40.47
2019-04-06T20:10:18.418Z,41.46
2019-04-06T20:12:48.071Z,40.72
2019-04-06T20:15:17.542Z,41.25
2019-04-06T20:17:47.491Z,42.34
2019-04-06T20:20:17.428Z,40.68
2019-04-06T20:22:46.929Z,40.81
2019-04-06T20:25:16.410Z,40.87
2019-04-06T20:27:46.272Z,40.90
2019-04-06T20:30:16.194Z,41.02
2019-04-06T20:32:45.850Z,41.60
2019-04-06T20:35:15.692Z,41.07
2019-04-06T20:37:45.150Z,42.67
2019-04-06T20:40:16.488Z,41.27
2019-04-06T20:42:45.994Z,41.14
2019-04-06T20:45:15.763Z,41.40
2019-04-06T20:47:45.192Z,41.45
2019-04-06T20:50:14.710Z,42.87
2019-04-06T20:52:44.061Z,42.87
2019-04-06T20:55:13.519Z,43.70
2019-04-06T20:57:42.863Z,42.47
2019-04-06T21:00:12.904Z,41.80
2019-04-06T21:02:42.251Z,41.73
2019-04-06T21:05:11.695Z,41.94
2019-04-06T21:07:41.508Z,42.33
2019-04-06T21:10:12.079Z,42.28
2019-04-06T21:12:41.418Z,42.28
2019-04-06T21:15:18.928Z,42.41
2019-04-06T21:17:42.703Z,42.68
2019-04-06T21:20:12.215Z,45.21
2019-04-06T21:22:41.910Z,43.38
2019-04-06T21:25:11.294Z,43.99
2019-04-06T21:27:43.141Z,42.99
2019-04-06T21:30:12.341Z,44.35
2019-04-06T21:32:42.408Z,43.21
2019-04-06T21:35:12.651Z,42.70
2019-04-06T21:37:41.977Z,44.91
2019-04-06T21:40:11.615Z,42.84
2019-04-06T21:42:41.000Z,42.75
2019-04-06T21:45:10.790Z,42.89
2019-04-06T21:47:40.128Z,44.73
2019-04-06T21:50:10.157Z,42.65
2019-04-06T21:52:39.508Z,43.54
2019-04-06T21:55:12.277Z,42.43
2019-04-06T21:57:41.926Z,45.02
2019-04-06T22:00:13.158Z,43.46
2019-04-06T22:02:43.551Z,42.20
2019-04-06T22:05:13.633Z,42.12
2019-04-06T22:07:49.519Z,42.44
2019-04-06T22:10:15.608Z,42.14
2019-04-06T22:12:45.119Z,42.57
2019-04-06T22:15:15.648Z,42.48
2019-04-06T22:17:45.472Z,42.41
2019-04-06T22:20:15.033Z,43.41
2019-04-06T22:22:44.385Z,45.89
2019-04-06T22:25:14.458Z,44.53
2019-04-06T22:27:43.865Z,44.02
2019-04-06T22:30:13.231Z,42.97
2019-04-06T22:32:42.602Z,42.88
2019-04-06T22:35:12.493Z,42.79
2019-04-06T22:37:41.967Z,42.09
2019-04-06T22:40:11.534Z,42.42
2019-04-06T22:42:41.131Z,41.98
2019-04-06T22:45:12.210Z,42.86
2019-04-06T22:47:41.577Z,42.64
2019-04-06T22:50:11.076Z,42.86
2019-04-06T22:52:40.430Z,44.74
2019-04-06T22:55:10.235Z,46.98
2019-04-06T22:57:39.880Z,48.43
2019-04-06T23:00:11.312Z,45.85
2019-04-06T23:02:49.971Z,42.82
2019-04-06T23:05:25.566Z,42.28
2019-04-06T23:07:55.158Z,42.96
2019-04-06T23:10:24.972Z,45.68
2019-04-06T23:12:54.597Z,43.11
2019-04-06T23:15:24.544Z,42.99
2019-04-06T23:17:54.327Z,44.50
2019-04-06T23:20:24.371Z,42.71
2019-04-06T23:22:53.958Z,43.06
2019-04-06T23:25:23.465Z,41.98
2019-04-06T23:27:53.358Z,41.61
2019-04-06T23:30:22.865Z,41.54
2019-04-06T23:32:52.395Z,41.61
2019-04-06T23:35:22.072Z,42.56
2019-04-06T23:37:51.565Z,42.23
2019-04-06T23:40:21.487Z,42.10
2019-04-06T23:42:51.459Z,41.93
2019-04-06T23:45:21.046Z,41.88
2019-04-06T23:47:51.064Z,42.38
2019-04-06T23:50:20.647Z,41.56
2019-04-06T23:52:50.533Z,42.04
2019-04-06T23:55:20.067Z,41.96
2019-04-06T23:57:49.651Z,41.73
